sensor_id;sensor_type;location;lat;lon;timestamp;P1;durP1;ratioP1;P2;durP2;ratioP2
33690;SDS011;20026;50.058;18.428;2023-12-14T00:00:54;424.33;;;80.55;;
33690;SDS011;20026;50.058;18.428;2023-12-14T00:03:20;396.38;;;77.30;;
33690;SDS011;20026;50.058;18.428;2023-12-14T00:05:46;365.60;;;77.72;;
33690;SDS011;20026;50.058;18.428;2023-12-14T00:08:12;385.33;;;84.65;;
33690;SDS011;20026;50.058;18.428;2023-12-14T00:10:38;480.10;;;97.55;;
33690;SDS011;20026;50.058;18.428;2023-12-14T00:13:04;376.20;;;87.13;;
33690;SDS011;20026;50.058;18.428;2023-12-14T00:15:31;452.05;;;86.93;;
33690;SDS011;20026;50.058;18.428;2023-12-14T00:17:57;375.30;;;79.03;;
33690;SDS011;20026;50.058;18.428;2023-12-14T00:20:23;536.47;;;89.07;;
33690;SDS011;20026;50.058;18.428;2023-12-14T00:22:49;423.55;;;82.32;;
33690;SDS011;20026;50.058;18.428;2023-12-14T00:25:15;395.38;;;80.43;;
33690;SDS011;20026;50.058;18.428;2023-12-14T00:27:41;404.55;;;82.70;;
33690;SDS011;20026;50.058;18.428;2023-12-14T00:30:07;338.35;;;80.05;;
33690;SDS011;20026;50.058;18.428;2023-12-14T00:32:33;309.90;;;75.97;;
33690;SDS011;20026;50.058;18.428;2023-12-14T00:35:00;334.75;;;79.45;;
33690;SDS011;20026;50.058;18.428;2023-12-14T00:37:26;349.60;;;80.82;;
33690;SDS011;20026;50.058;18.428;2023-12-14T00:39:52;401.10;;;88.38;;
33690;SDS011;20026;50.058;18.428;2023-12-14T00:42:19;353.90;;;82.00;;
33690;SDS011;20026;50.058;18.428;2023-12-14T00:44:45;383.58;;;81.63;;
33690;SDS011;20026;50.058;18.428;2023-12-14T00:47:11;340.80;;;80.78;;
33690;SDS011;20026;50.058;18.428;2023-12-14T00:49:38;373.73;;;82.50;;
33690;SDS011;20026;50.058;18.428;2023-12-14T00:52:04;350.88;;;81.40;;
33690;SDS011;20026;50.058;18.428;2023-12-14T00:54:30;342.20;;;77.72;;
33690;SDS011;20026;50.058;18.428;2023-12-14T00:56:56;355.95;;;81.90;;
33690;SDS011;20026;50.058;18.428;2023-12-14T00:59:22;350.83;;;83.93;;
33690;SDS011;20026;50.058;18.428;2023-12-14T01:01:48;360.95;;;78.45;;
33690;SDS011;20026;50.058;18.428;2023-12-14T01:04:14;299.38;;;65.88;;
33690;SDS011;20026;50.058;18.428;2023-12-14T01:06:40;331.55;;;70.55;;
33690;SDS011;20026;50.058;18.428;2023-12-14T01:09:06;392.73;;;73.70;;
33690;SDS011;20026;50.058;18.428;2023-12-14T01:11:33;318.55;;;71.28;;
33690;SDS011;20026;50.058;18.428;2023-12-14T01:13:59;290.23;;;66.07;;
33690;SDS011;20026;50.058;18.428;2023-12-14T01:16:25;393.70;;;77.20;;
33690;SDS011;20026;50.058;18.428;2023-12-14T01:18:52;375.65;;;75.70;;
33690;SDS011;20026;50.058;18.428;2023-12-14T01:21:18;360.88;;;78.93;;
33690;SDS011;20026;50.058;18.428;2023-12-14T01:23:44;376.65;;;78.57;;
33690;SDS011;20026;50.058;18.428;2023-12-14T01:26:10;355.80;;;80.80;;
33690;SDS011;20026;50.058;18.428;2023-12-14T01:28:36;383.25;;;84.38;;
33690;SDS011;20026;50.058;18.428;2023-12-14T01:31:02;473.92;;;84.38;;
33690;SDS011;20026;50.058;18.428;2023-12-14T01:33:28;362.08;;;81.03;;
33690;SDS011;20026;50.058;18.428;2023-12-14T01:35:54;514.25;;;101.80;;
33690;SDS011;20026;50.058;18.428;2023-12-14T01:38:20;457.55;;;87.32;;
33690;SDS011;20026;50.058;18.428;2023-12-14T01:40:46;503.42;;;88.22;;
33690;SDS011;20026;50.058;18.428;2023-12-14T01:43:12;544.13;;;89.38;;
33690;SDS011;20026;50.058;18.428;2023-12-14T01:45:38;433.63;;;78.25;;
33690;SDS011;20026;50.058;18.428;2023-12-14T01:48:05;472.35;;;79.25;;
33690;SDS011;20026;50.058;18.428;2023-12-14T01:50:31;486.65;;;81.18;;
33690;SDS011;20026;50.058;18.428;2023-12-14T01:52:57;408.15;;;80.20;;
33690;SDS011;20026;50.058;18.428;2023-12-14T01:55:23;484.40;;;86.03;;
33690;SDS011;20026;50.058;18.428;2023-12-14T01:57:51;434.13;;;83.40;;
33690;SDS011;20026;50.058;18.428;2023-12-14T02:00:20;458.15;;;84.28;;
33690;SDS011;20026;50.058;18.428;2023-12-14T02:02:47;580.38;;;91.78;;
33690;SDS011;20026;50.058;18.428;2023-12-14T02:05:13;580.65;;;85.60;;
33690;SDS011;20026;50.058;18.428;2023-12-14T02:07:39;424.33;;;83.28;;
33690;SDS011;20026;50.058;18.428;2023-12-14T02:10:06;567.22;;;88.30;;
33690;SDS011;20026;50.058;18.428;2023-12-14T02:12:32;594.22;;;90.82;;
33690;SDS011;20026;50.058;18.428;2023-12-14T02:14:59;456.58;;;80.55;;
33690;SDS011;20026;50.058;18.428;2023-12-14T02:17:25;475.00;;;89.90;;
33690;SDS011;20026;50.058;18.428;2023-12-14T02:19:51;611.30;;;99.60;;
33690;SDS011;20026;50.058;18.428;2023-12-14T02:22:17;573.83;;;91.75;;
33690;SDS011;20026;50.058;18.428;2023-12-14T02:24:44;501.90;;;88.07;;
33690;SDS011;20026;50.058;18.428;2023-12-14T02:27:10;462.48;;;85.78;;
33690;SDS011;20026;50.058;18.428;2023-12-14T02:29:36;507.05;;;90.55;;
33690;SDS011;20026;50.058;18.428;2023-12-14T02:32:02;455.92;;;88.20;;
33690;SDS011;20026;50.058;18.428;2023-12-14T02:34:28;533.42;;;87.30;;
33690;SDS011;20026;50.058;18.428;2023-12-14T02:36:54;427.08;;;85.00;;
33690;SDS011;20026;50.058;18.428;2023-12-14T02:39:20;472.90;;;89.35;;
33690;SDS011;20026;50.058;18.428;2023-12-14T02:41:46;569.55;;;94.47;;
33690;SDS011;20026;50.058;18.428;2023-12-14T02:44:12;416.38;;;85.80;;
33690;SDS011;20026;50.058;18.428;2023-12-14T02:46:38;444.73;;;82.47;;
33690;SDS011;20026;50.058;18.428;2023-12-14T02:49:04;565.17;;;83.45;;
33690;SDS011;20026;50.058;18.428;2023-12-14T02:51:30;456.27;;;82.82;;
33690;SDS011;20026;50.058;18.428;2023-12-14T02:53:56;425.38;;;85.47;;
33690;SDS011;20026;50.058;18.428;2023-12-14T02:56:23;561.08;;;94.93;;
33690;SDS011;20026;50.058;18.428;2023-12-14T02:58:49;722.03;;;109.43;;
33690;SDS011;20026;50.058;18.428;2023-12-14T03:01:19;468.50;;;87.40;;
33690;SDS011;20026;50.058;18.428;2023-12-14T03:03:48;369.38;;;73.70;;
33690;SDS011;20026;50.058;18.428;2023-12-14T03:06:14;407.42;;;79.63;;
33690;SDS011;20026;50.058;18.428;2023-12-14T03:08:40;447.13;;;81.32;;
33690;SDS011;20026;50.058;18.428;2023-12-14T03:11:06;458.55;;;80.72;;
33690;SDS011;20026;50.058;18.428;2023-12-14T03:13:32;470.05;;;83.65;;
33690;SDS011;20026;50.058;18.428;2023-12-14T03:15:58;462.25;;;83.25;;
33690;SDS011;20026;50.058;18.428;2023-12-14T03:18:25;443.65;;;83.47;;
33690;SDS011;20026;50.058;18.428;2023-12-14T03:20:51;429.95;;;77.00;;
33690;SDS011;20026;50.058;18.428;2023-12-14T03:23:17;356.23;;;77.20;;
33690;SDS011;20026;50.058;18.428;2023-12-14T03:25:43;392.27;;;75.82;;
33690;SDS011;20026;50.058;18.428;2023-12-14T03:28:09;348.30;;;83.60;;
33690;SDS011;20026;50.058;18.428;2023-12-14T03:30:35;364.73;;;80.28;;
33690;SDS011;20026;50.058;18.428;2023-12-14T03:33:01;352.27;;;80.30;;
33690;SDS011;20026;50.058;18.428;2023-12-14T03:35:27;390.27;;;68.68;;
33690;SDS011;20026;50.058;18.428;2023-12-14T03:37:53;341.35;;;68.40;;
33690;SDS011;20026;50.058;18.428;2023-12-14T03:40:19;371.48;;;61.45;;
33690;SDS011;20026;50.058;18.428;2023-12-14T03:42:45;314.27;;;61.55;;
33690;SDS011;20026;50.058;18.428;2023-12-14T03:45:11;371.15;;;65.40;;
33690;SDS011;20026;50.058;18.428;2023-12-14T03:47:37;306.13;;;62.38;;
33690;SDS011;20026;50.058;18.428;2023-12-14T03:50:04;383.58;;;65.22;;
33690;SDS011;20026;50.058;18.428;2023-12-14T03:52:30;437.25;;;62.90;;
33690;SDS011;20026;50.058;18.428;2023-12-14T03:54:56;356.27;;;58.80;;
33690;SDS011;20026;50.058;18.428;2023-12-14T03:57:22;476.02;;;62.25;;
33690;SDS011;20026;50.058;18.428;2023-12-14T03:59:48;388.38;;;62.33;;
33690;SDS011;20026;50.058;18.428;2023-12-14T04:02:14;517.97;;;66.82;;
33690;SDS011;20026;50.058;18.428;2023-12-14T04:04:40;439.20;;;62.75;;
33690;SDS011;20026;50.058;18.428;2023-12-14T04:07:06;372.60;;;61.08;;
33690;SDS011;20026;50.058;18.428;2023-12-14T04:09:32;471.48;;;67.20;;
33690;SDS011;20026;50.058;18.428;2023-12-14T04:11:58;400.13;;;61.20;;
33690;SDS011;20026;50.058;18.428;2023-12-14T04:14:24;445.20;;;59.00;;
33690;SDS011;20026;50.058;18.428;2023-12-14T04:16:50;427.10;;;60.67;;
33690;SDS011;20026;50.058;18.428;2023-12-14T04:19:16;458.35;;;63.17;;
33690;SDS011;20026;50.058;18.428;2023-12-14T04:21:42;508.92;;;69.30;;
33690;SDS011;20026;50.058;18.428;2023-12-14T04:24:08;401.42;;;64.18;;
33690;SDS011;20026;50.058;18.428;2023-12-14T04:26:36;372.45;;;67.18;;
33690;SDS011;20026;50.058;18.428;2023-12-14T04:29:02;440.10;;;67.03;;
33690;SDS011;20026;50.058;18.428;2023-12-14T04:31:28;446.35;;;66.80;;
33690;SDS011;20026;50.058;18.428;2023-12-14T04:33:54;429.05;;;69.43;;
33690;SDS011;20026;50.058;18.428;2023-12-14T04:36:20;516.58;;;74.38;;
33690;SDS011;20026;50.058;18.428;2023-12-14T04:38:46;375.77;;;67.35;;
33690;SDS011;20026;50.058;18.428;2023-12-14T04:41:12;437.13;;;67.38;;
33690;SDS011;20026;50.058;18.428;2023-12-14T04:43:38;368.58;;;63.50;;
33690;SDS011;20026;50.058;18.428;2023-12-14T04:46:04;340.35;;;58.45;;
33690;SDS011;20026;50.058;18.428;2023-12-14T04:48:31;332.65;;;56.40;;
33690;SDS011;20026;50.058;18.428;2023-12-14T04:50:57;403.80;;;59.58;;
33690;SDS011;20026;50.058;18.428;2023-12-14T04:53:23;355.95;;;61.63;;
33690;SDS011;20026;50.058;18.428;2023-12-14T04:55:49;337.75;;;60.55;;
33690;SDS011;20026;50.058;18.428;2023-12-14T04:58:15;348.55;;;62.63;;
33690;SDS011;20026;50.058;18.428;2023-12-14T05:00:41;327.00;;;59.28;;
33690;SDS011;20026;50.058;18.428;2023-12-14T05:03:07;317.20;;;60.03;;
33690;SDS011;20026;50.058;18.428;2023-12-14T05:05:33;349.48;;;60.08;;
33690;SDS011;20026;50.058;18.428;2023-12-14T05:07:59;339.60;;;58.78;;
33690;SDS011;20026;50.058;18.428;2023-12-14T05:10:25;384.77;;;62.47;;
33690;SDS011;20026;50.058;18.428;2023-12-14T05:12:51;360.17;;;68.75;;
33690;SDS011;20026;50.058;18.428;2023-12-14T05:15:17;419.35;;;67.90;;
33690;SDS011;20026;50.058;18.428;2023-12-14T05:17:45;377.55;;;68.15;;
33690;SDS011;20026;50.058;18.428;2023-12-14T05:20:11;402.20;;;70.32;;
33690;SDS011;20026;50.058;18.428;2023-12-14T05:22:37;294.60;;;58.80;;
33690;SDS011;20026;50.058;18.428;2023-12-14T05:25:03;294.27;;;57.97;;
33690;SDS011;20026;50.058;18.428;2023-12-14T05:27:29;266.27;;;56.75;;
33690;SDS011;20026;50.058;18.428;2023-12-14T05:29:55;272.95;;;61.42;;
33690;SDS011;20026;50.058;18.428;2023-12-14T05:32:21;253.25;;;56.25;;
33690;SDS011;20026;50.058;18.428;2023-12-14T05:34:47;238.00;;;57.22;;
33690;SDS011;20026;50.058;18.428;2023-12-14T05:37:13;256.73;;;58.88;;
33690;SDS011;20026;50.058;18.428;2023-12-14T05:39:42;263.77;;;59.45;;
33690;SDS011;20026;50.058;18.428;2023-12-14T05:42:10;250.23;;;60.28;;
33690;SDS011;20026;50.058;18.428;2023-12-14T05:44:36;247.20;;;58.50;;
33690;SDS011;20026;50.058;18.428;2023-12-14T05:47:02;248.15;;;59.47;;
33690;SDS011;20026;50.058;18.428;2023-12-14T05:49:28;248.45;;;58.55;;
33690;SDS011;20026;50.058;18.428;2023-12-14T05:51:54;234.35;;;59.15;;
33690;SDS011;20026;50.058;18.428;2023-12-14T05:54:20;239.40;;;56.08;;
33690;SDS011;20026;50.058;18.428;2023-12-14T05:56:46;234.88;;;55.58;;
33690;SDS011;20026;50.058;18.428;2023-12-14T05:59:12;235.98;;;56.83;;
33690;SDS011;20026;50.058;18.428;2023-12-14T06:01:38;243.15;;;57.92;;
33690;SDS011;20026;50.058;18.428;2023-12-14T06:04:04;220.10;;;56.40;;
33690;SDS011;20026;50.058;18.428;2023-12-14T06:06:30;242.77;;;52.95;;
33690;SDS011;20026;50.058;18.428;2023-12-14T06:08:56;243.10;;;56.80;;
33690;SDS011;20026;50.058;18.428;2023-12-14T06:11:22;247.05;;;56.78;;
33690;SDS011;20026;50.058;18.428;2023-12-14T06:13:48;244.55;;;57.55;;
33690;SDS011;20026;50.058;18.428;2023-12-14T06:16:15;247.07;;;57.72;;
33690;SDS011;20026;50.058;18.428;2023-12-14T06:18:41;237.23;;;57.97;;
33690;SDS011;20026;50.058;18.428;2023-12-14T06:21:08;229.98;;;56.72;;
33690;SDS011;20026;50.058;18.428;2023-12-14T06:23:37;240.93;;;56.55;;
33690;SDS011;20026;50.058;18.428;2023-12-14T06:26:03;255.70;;;61.43;;
33690;SDS011;20026;50.058;18.428;2023-12-14T06:28:29;236.85;;;55.40;;
33690;SDS011;20026;50.058;18.428;2023-12-14T06:30:58;238.90;;;57.88;;
33690;SDS011;20026;50.058;18.428;2023-12-14T06:33:26;265.60;;;61.08;;
33690;SDS011;20026;50.058;18.428;2023-12-14T06:35:52;241.77;;;60.95;;
33690;SDS011;20026;50.058;18.428;2023-12-14T06:38:19;229.05;;;60.38;;
33690;SDS011;20026;50.058;18.428;2023-12-14T06:40:45;238.85;;;61.63;;
33690;SDS011;20026;50.058;18.428;2023-12-14T06:43:11;230.77;;;60.85;;
33690;SDS011;20026;50.058;18.428;2023-12-14T06:45:37;228.18;;;60.05;;
33690;SDS011;20026;50.058;18.428;2023-12-14T06:48:03;229.43;;;58.97;;
33690;SDS011;20026;50.058;18.428;2023-12-14T06:50:29;231.68;;;59.75;;
33690;SDS011;20026;50.058;18.428;2023-12-14T06:52:55;231.10;;;62.53;;
33690;SDS011;20026;50.058;18.428;2023-12-14T06:55:21;252.85;;;71.63;;
33690;SDS011;20026;50.058;18.428;2023-12-14T06:57:47;264.63;;;76.80;;
33690;SDS011;20026;50.058;18.428;2023-12-14T07:00:14;253.32;;;70.00;;
33690;SDS011;20026;50.058;18.428;2023-12-14T07:02:40;231.60;;;65.72;;
33690;SDS011;20026;50.058;18.428;2023-12-14T07:05:06;216.32;;;63.35;;
33690;SDS011;20026;50.058;18.428;2023-12-14T07:07:32;220.15;;;67.25;;
33690;SDS011;20026;50.058;18.428;2023-12-14T07:09:58;227.68;;;71.25;;
33690;SDS011;20026;50.058;18.428;2023-12-14T07:12:24;243.95;;;72.47;;
33690;SDS011;20026;50.058;18.428;2023-12-14T07:14:50;257.73;;;78.50;;
33690;SDS011;20026;50.058;18.428;2023-12-14T07:17:16;258.40;;;81.20;;
33690;SDS011;20026;50.058;18.428;2023-12-14T07:19:42;297.55;;;100.20;;
33690;SDS011;20026;50.058;18.428;2023-12-14T07:22:08;287.38;;;93.22;;
33690;SDS011;20026;50.058;18.428;2023-12-14T07:24:34;282.15;;;97.82;;
33690;SDS011;20026;50.058;18.428;2023-12-14T07:27:00;342.98;;;102.40;;
33690;SDS011;20026;50.058;18.428;2023-12-14T07:29:26;319.50;;;93.40;;
33690;SDS011;20026;50.058;18.428;2023-12-14T07:31:52;269.83;;;74.20;;
33690;SDS011;20026;50.058;18.428;2023-12-14T07:34:18;253.27;;;73.95;;
33690;SDS011;20026;50.058;18.428;2023-12-14T07:36:45;227.35;;;67.50;;
33690;SDS011;20026;50.058;18.428;2023-12-14T07:39:11;182.05;;;54.83;;
33690;SDS011;20026;50.058;18.428;2023-12-14T07:41:37;208.57;;;60.80;;
33690;SDS011;20026;50.058;18.428;2023-12-14T07:44:03;213.45;;;65.45;;
33690;SDS011;20026;50.058;18.428;2023-12-14T07:46:29;233.98;;;76.25;;
33690;SDS011;20026;50.058;18.428;2023-12-14T07:48:55;254.25;;;79.90;;
33690;SDS011;20026;50.058;18.428;2023-12-14T07:51:21;252.82;;;77.68;;
33690;SDS011;20026;50.058;18.428;2023-12-14T07:53:47;233.63;;;68.13;;
33690;SDS011;20026;50.058;18.428;2023-12-14T07:56:13;185.38;;;59.25;;
33690;SDS011;20026;50.058;18.428;2023-12-14T07:58:39;208.35;;;56.10;;
33690;SDS011;20026;50.058;18.428;2023-12-14T08:01:06;200.77;;;57.83;;
33690;SDS011;20026;50.058;18.428;2023-12-14T08:03:32;200.93;;;57.28;;
33690;SDS011;20026;50.058;18.428;2023-12-14T08:05:58;187.38;;;55.83;;
33690;SDS011;20026;50.058;18.428;2023-12-14T08:08:24;180.98;;;55.28;;
33690;SDS011;20026;50.058;18.428;2023-12-14T08:10:50;188.38;;;55.88;;
33690;SDS011;20026;50.058;18.428;2023-12-14T08:13:16;204.70;;;59.83;;
33690;SDS011;20026;50.058;18.428;2023-12-14T08:15:42;239.48;;;69.55;;
33690;SDS011;20026;50.058;18.428;2023-12-14T08:18:08;225.98;;;63.55;;
33690;SDS011;20026;50.058;18.428;2023-12-14T08:20:34;194.10;;;52.72;;
33690;SDS011;20026;50.058;18.428;2023-12-14T08:23:00;192.18;;;58.55;;
33690;SDS011;20026;50.058;18.428;2023-12-14T08:25:27;200.52;;;55.33;;
33690;SDS011;20026;50.058;18.428;2023-12-14T08:27:53;210.40;;;56.95;;
33690;SDS011;20026;50.058;18.428;2023-12-14T08:30:19;207.07;;;58.53;;
33690;SDS011;20026;50.058;18.428;2023-12-14T08:32:46;222.30;;;63.67;;
33690;SDS011;20026;50.058;18.428;2023-12-14T08:35:12;238.10;;;68.47;;
33690;SDS011;20026;50.058;18.428;2023-12-14T08:37:38;246.82;;;73.63;;
33690;SDS011;20026;50.058;18.428;2023-12-14T08:40:05;223.73;;;60.88;;
33690;SDS011;20026;50.058;18.428;2023-12-14T08:42:31;224.15;;;59.10;;
33690;SDS011;20026;50.058;18.428;2023-12-14T08:44:57;260.73;;;68.68;;
33690;SDS011;20026;50.058;18.428;2023-12-14T08:47:23;256.77;;;67.78;;
33690;SDS011;20026;50.058;18.428;2023-12-14T08:49:49;214.88;;;59.47;;
33690;SDS011;20026;50.058;18.428;2023-12-14T08:52:15;214.98;;;55.65;;
33690;SDS011;20026;50.058;18.428;2023-12-14T08:54:41;220.82;;;54.80;;
33690;SDS011;20026;50.058;18.428;2023-12-14T08:57:10;211.32;;;56.42;;
33690;SDS011;20026;50.058;18.428;2023-12-14T08:59:37;187.35;;;47.92;;
33690;SDS011;20026;50.058;18.428;2023-12-14T09:02:03;205.27;;;54.10;;
33690;SDS011;20026;50.058;18.428;2023-12-14T09:04:29;207.63;;;54.75;;
33690;SDS011;20026;50.058;18.428;2023-12-14T09:06:56;194.25;;;52.25;;
33690;SDS011;20026;50.058;18.428;2023-12-14T09:09:22;206.70;;;56.53;;
33690;SDS011;20026;50.058;18.428;2023-12-14T09:11:48;214.65;;;56.30;;
33690;SDS011;20026;50.058;18.428;2023-12-14T09:14:14;189.77;;;55.03;;
33690;SDS011;20026;50.058;18.428;2023-12-14T09:16:41;192.30;;;53.75;;
33690;SDS011;20026;50.058;18.428;2023-12-14T09:19:07;212.30;;;58.22;;
33690;SDS011;20026;50.058;18.428;2023-12-14T09:21:33;188.02;;;52.08;;
33690;SDS011;20026;50.058;18.428;2023-12-14T09:23:59;236.93;;;63.42;;
33690;SDS011;20026;50.058;18.428;2023-12-14T09:26:26;196.93;;;53.15;;
33690;SDS011;20026;50.058;18.428;2023-12-14T09:28:52;223.27;;;62.80;;
33690;SDS011;20026;50.058;18.428;2023-12-14T09:31:18;254.10;;;72.40;;
33690;SDS011;20026;50.058;18.428;2023-12-14T09:33:44;229.15;;;66.65;;
33690;SDS011;20026;50.058;18.428;2023-12-14T09:36:10;231.65;;;66.25;;
33690;SDS011;20026;50.058;18.428;2023-12-14T09:38:36;220.98;;;60.08;;
33690;SDS011;20026;50.058;18.428;2023-12-14T09:41:02;233.02;;;62.60;;
33690;SDS011;20026;50.058;18.428;2023-12-14T09:43:29;200.32;;;57.97;;
33690;SDS011;20026;50.058;18.428;2023-12-14T09:45:55;216.75;;;64.30;;
33690;SDS011;20026;50.058;18.428;2023-12-14T09:48:21;217.02;;;67.05;;
33690;SDS011;20026;50.058;18.428;2023-12-14T09:50:47;246.80;;;78.30;;
33690;SDS011;20026;50.058;18.428;2023-12-14T09:53:14;223.90;;;73.20;;
33690;SDS011;20026;50.058;18.428;2023-12-14T09:55:41;208.73;;;64.00;;
33690;SDS011;20026;50.058;18.428;2023-12-14T09:58:07;211.05;;;67.35;;
33690;SDS011;20026;50.058;18.428;2023-12-14T10:00:38;205.73;;;63.75;;
33690;SDS011;20026;50.058;18.428;2023-12-14T10:03:23;196.55;;;63.20;;
33690;SDS011;20026;50.058;18.428;2023-12-14T10:05:51;182.52;;;58.65;;
33690;SDS011;20026;50.058;18.428;2023-12-14T10:08:17;145.07;;;48.60;;
33690;SDS011;20026;50.058;18.428;2023-12-14T10:10:44;164.63;;;55.75;;
33690;SDS011;20026;50.058;18.428;2023-12-14T10:13:10;162.15;;;54.33;;
33690;SDS011;20026;50.058;18.428;2023-12-14T10:15:55;148.20;;;49.53;;
33690;SDS011;20026;50.058;18.428;2023-12-14T10:18:21;159.95;;;55.67;;
33690;SDS011;20026;50.058;18.428;2023-12-14T10:20:49;145.10;;;53.47;;
33690;SDS011;20026;50.058;18.428;2023-12-14T10:23:15;157.05;;;52.25;;
33690;SDS011;20026;50.058;18.428;2023-12-14T10:25:42;158.63;;;53.03;;
33690;SDS011;20026;50.058;18.428;2023-12-14T10:28:08;158.00;;;54.58;;
33690;SDS011;20026;50.058;18.428;2023-12-14T10:30:34;147.85;;;52.75;;
33690;SDS011;20026;50.058;18.428;2023-12-14T10:33:00;142.35;;;49.42;;
33690;SDS011;20026;50.058;18.428;2023-12-14T10:35:26;139.85;;;50.42;;
33690;SDS011;20026;50.058;18.428;2023-12-14T10:37:52;130.43;;;45.83;;
33690;SDS011;20026;50.058;18.428;2023-12-14T10:40:19;131.85;;;47.30;;
33690;SDS011;20026;50.058;18.428;2023-12-14T10:42:45;136.57;;;49.28;;
33690;SDS011;20026;50.058;18.428;2023-12-14T10:45:12;123.72;;;46.55;;
33690;SDS011;20026;50.058;18.428;2023-12-14T10:47:42;139.35;;;51.40;;
33690;SDS011;20026;50.058;18.428;2023-12-14T10:50:09;133.10;;;48.05;;
33690;SDS011;20026;50.058;18.428;2023-12-14T10:52:37;127.38;;;46.42;;
33690;SDS011;20026;50.058;18.428;2023-12-14T10:55:05;124.07;;;46.97;;
33690;SDS011;20026;50.058;18.428;2023-12-14T10:57:31;126.93;;;48.58;;
33690;SDS011;20026;50.058;18.428;2023-12-14T10:59:59;130.60;;;49.90;;
33690;SDS011;20026;50.058;18.428;2023-12-14T11:02:25;137.90;;;49.63;;
33690;SDS011;20026;50.058;18.428;2023-12-14T11:08:04;128.88;;;48.08;;
33690;SDS011;20026;50.058;18.428;2023-12-14T11:10:11;132.93;;;46.72;;
33690;SDS011;20026;50.058;18.428;2023-12-14T11:12:37;125.20;;;45.20;;
33690;SDS011;20026;50.058;18.428;2023-12-14T11:15:04;136.00;;;50.17;;
33690;SDS011;20026;50.058;18.428;2023-12-14T11:17:31;146.65;;;51.17;;
33690;SDS011;20026;50.058;18.428;2023-12-14T11:20:19;145.20;;;50.70;;
33690;SDS011;20026;50.058;18.428;2023-12-14T11:22:45;138.63;;;48.60;;
33690;SDS011;20026;50.058;18.428;2023-12-14T11:25:11;133.75;;;48.80;;
33690;SDS011;20026;50.058;18.428;2023-12-14T11:27:42;149.73;;;55.75;;
33690;SDS011;20026;50.058;18.428;2023-12-14T11:30:11;130.95;;;47.63;;
33690;SDS011;20026;50.058;18.428;2023-12-14T11:32:37;129.32;;;46.85;;
33690;SDS011;20026;50.058;18.428;2023-12-14T11:35:04;135.73;;;46.47;;
33690;SDS011;20026;50.058;18.428;2023-12-14T11:37:33;132.13;;;46.10;;
33690;SDS011;20026;50.058;18.428;2023-12-14T11:40:00;134.05;;;49.33;;
33690;SDS011;20026;50.058;18.428;2023-12-14T11:42:26;139.20;;;50.72;;
33690;SDS011;20026;50.058;18.428;2023-12-14T11:44:56;146.35;;;52.65;;
33690;SDS011;20026;50.058;18.428;2023-12-14T11:47:22;165.98;;;57.67;;
33690;SDS011;20026;50.058;18.428;2023-12-14T11:49:48;160.68;;;57.65;;
33690;SDS011;20026;50.058;18.428;2023-12-14T11:52:14;157.65;;;51.55;;
33690;SDS011;20026;50.058;18.428;2023-12-14T11:54:40;178.52;;;54.47;;
33690;SDS011;20026;50.058;18.428;2023-12-14T11:57:06;179.27;;;56.58;;
33690;SDS011;20026;50.058;18.428;2023-12-14T11:59:34;184.18;;;54.88;;
33690;SDS011;20026;50.058;18.428;2023-12-14T12:02:01;190.77;;;55.75;;
33690;SDS011;20026;50.058;18.428;2023-12-14T12:04:27;197.35;;;57.40;;
33690;SDS011;20026;50.058;18.428;2023-12-14T12:09:36;191.93;;;59.97;;
33690;SDS011;20026;50.058;18.428;2023-12-14T12:12:06;215.55;;;65.80;;
33690;SDS011;20026;50.058;18.428;2023-12-14T12:14:33;211.38;;;58.15;;
33690;SDS011;20026;50.058;18.428;2023-12-14T12:17:00;204.55;;;62.30;;
33690;SDS011;20026;50.058;18.428;2023-12-14T12:19:26;213.73;;;62.75;;
33690;SDS011;20026;50.058;18.428;2023-12-14T12:21:52;231.18;;;61.85;;
33690;SDS011;20026;50.058;18.428;2023-12-14T12:24:18;184.95;;;58.55;;
33690;SDS011;20026;50.058;18.428;2023-12-14T12:26:44;233.80;;;69.43;;
33690;SDS011;20026;50.058;18.428;2023-12-14T12:29:10;251.43;;;77.60;;
33690;SDS011;20026;50.058;18.428;2023-12-14T12:31:36;263.17;;;82.95;;
33690;SDS011;20026;50.058;18.428;2023-12-14T12:34:02;293.92;;;91.03;;
33690;SDS011;20026;50.058;18.428;2023-12-14T12:36:28;302.13;;;89.68;;
33690;SDS011;20026;50.058;18.428;2023-12-14T12:38:54;275.50;;;76.78;;
33690;SDS011;20026;50.058;18.428;2023-12-14T12:41:20;270.48;;;68.50;;
33690;SDS011;20026;50.058;18.428;2023-12-14T12:43:46;224.90;;;57.67;;
33690;SDS011;20026;50.058;18.428;2023-12-14T12:46:12;258.98;;;67.28;;
33690;SDS011;20026;50.058;18.428;2023-12-14T12:48:38;311.13;;;77.93;;
33690;SDS011;20026;50.058;18.428;2023-12-14T12:51:04;264.23;;;70.18;;
33690;SDS011;20026;50.058;18.428;2023-12-14T12:53:31;233.60;;;68.93;;
33690;SDS011;20026;50.058;18.428;2023-12-14T12:55:58;202.60;;;60.22;;
33690;SDS011;20026;50.058;18.428;2023-12-14T12:58:24;193.88;;;60.05;;
33690;SDS011;20026;50.058;18.428;2023-12-14T13:00:50;213.38;;;65.90;;
33690;SDS011;20026;50.058;18.428;2023-12-14T13:03:16;232.57;;;79.35;;
33690;SDS011;20026;50.058;18.428;2023-12-14T13:05:42;228.13;;;78.80;;
33690;SDS011;20026;50.058;18.428;2023-12-14T13:08:08;227.00;;;84.60;;
33690;SDS011;20026;50.058;18.428;2023-12-14T13:10:34;192.60;;;64.75;;
33690;SDS011;20026;50.058;18.428;2023-12-14T13:13:02;214.05;;;70.28;;
33690;SDS011;20026;50.058;18.428;2023-12-14T13:15:29;198.77;;;63.53;;
33690;SDS011;20026;50.058;18.428;2023-12-14T13:17:56;209.85;;;60.80;;
33690;SDS011;20026;50.058;18.428;2023-12-14T13:20:22;225.18;;;70.50;;
33690;SDS011;20026;50.058;18.428;2023-12-14T13:22:48;189.52;;;60.47;;
33690;SDS011;20026;50.058;18.428;2023-12-14T13:25:14;164.95;;;51.83;;
33690;SDS011;20026;50.058;18.428;2023-12-14T13:27:40;178.32;;;55.53;;
33690;SDS011;20026;50.058;18.428;2023-12-14T13:30:06;192.85;;;56.97;;
33690;SDS011;20026;50.058;18.428;2023-12-14T13:32:33;234.02;;;70.35;;
33690;SDS011;20026;50.058;18.428;2023-12-14T13:34:59;216.73;;;68.82;;
33690;SDS011;20026;50.058;18.428;2023-12-14T13:37:25;208.68;;;70.00;;
33690;SDS011;20026;50.058;18.428;2023-12-14T13:39:51;207.30;;;77.22;;
33690;SDS011;20026;50.058;18.428;2023-12-14T13:42:18;205.27;;;70.85;;
33690;SDS011;20026;50.058;18.428;2023-12-14T13:44:44;226.43;;;92.75;;
33690;SDS011;20026;50.058;18.428;2023-12-14T13:47:10;302.88;;;141.75;;
33690;SDS011;20026;50.058;18.428;2023-12-14T13:49:36;236.77;;;101.65;;
33690;SDS011;20026;50.058;18.428;2023-12-14T13:52:03;198.85;;;68.35;;
33690;SDS011;20026;50.058;18.428;2023-12-14T13:54:29;277.05;;;133.73;;
33690;SDS011;20026;50.058;18.428;2023-12-14T13:56:55;263.77;;;121.65;;